Time;durP1;ratioP1;P1;durP2;ratioP2;P2;SDS_P1;SDS_P2;PMS_P1;PMS_P2;Temp;Humidity;BMP_temperature;BMP_pressure;BME280_temperature;BME280_humidity;BME280_pressure;Samples;Min_cycle;Max_cycle;Signal;HPM_P1;HPM_P2
2023/03/18 00:00:24;;;;;;;0.10;0.10;;;;;;;18.30;67.47;100716.50;2122381;27;20082;-66
2023/03/18 00:01:26;;;;;;;0.20;0.20;;;;;;;18.31;67.17;100712.59;2122495;27;20082;-66
2023/03/18 00:02:31;;;;;;;0.10;0.10;;;;;;;18.29;67.44;100715.72;2122368;27;20115;-65
2023/03/18 00:03:35;;;;;;;0.20;0.20;;;;;;;18.30;67.40;100716.50;2122481;27;20059;-65
2023/03/18 00:04:39;;;;;;;0.10;0.10;;;;;;;18.29;67.31;100706.75;2104686;28;20311;-66
2023/03/18 00:05:41;;;;;;;0.20;0.20;;;;;;;18.28;67.48;100708.72;2105567;27;20056;-66
2023/03/18 00:06:44;;;;;;;0.10;0.10;;;;;;;18.29;67.32;100715.72;2114323;28;20059;-65
2023/03/18 00:07:46;;;;;;;0.10;0.10;;;;;;;18.29;67.13;100714.94;2105589;28;20133;-66
2023/03/18 00:08:51;;;;;;;0.10;0.10;;;;;;;18.30;67.21;100716.50;2105586;28;20089;-66
2023/03/18 00:09:53;;;;;;;0.20;0.20;;;;;;;18.28;67.46;100710.66;2114321;28;20435;-65
2023/03/18 00:10:56;;;;;;;0.15;0.15;;;;;;;18.29;67.23;100709.47;2120068;27;20055;-65
2023/03/18 00:11:59;;;;;;;0.20;0.20;;;;;;;18.28;67.50;100711.44;2122269;27;20551;-65
2023/03/18 00:13:03;;;;;;;0.03;0.03;;;;;;;18.29;67.24;100710.25;2122340;27;20555;-66
2023/03/18 00:14:05;;;;;;;0.10;0.10;;;;;;;18.29;67.31;100712.19;2122335;27;20515;-66
2023/03/18 00:15:11;;;;;;;0.10;0.10;;;;;;;18.30;67.26;100708.31;2122076;27;20051;-66
2023/03/18 00:16:13;;;;;;;0.10;0.10;;;;;;;18.28;67.53;100713.38;2121045;27;20085;-66
2023/03/18 00:17:16;;;;;;;0.10;0.10;;;;;;;18.28;67.52;100710.66;2113554;27;20093;-66
2023/03/18 00:18:19;;;;;;;0.10;0.10;;;;;;;18.28;67.46;100708.72;2105303;28;20060;-66
2023/03/18 00:19:22;;;;;;;0.10;0.10;;;;;;;18.27;67.51;100707.13;2104430;28;20454;-65
2023/03/18 00:20:37;;;;;;;0.10;0.10;;;;;;;18.28;67.45;100713.38;2113155;27;20059;-65
2023/03/18 00:21:40;;;;;;;0.20;0.20;;;;;;;18.25;67.57;100714.94;2119349;27;20107;-65
2023/03/18 00:22:42;;;;;;;0.20;0.20;;;;;;;18.27;67.47;100714.53;2122139;27;20567;-65
2023/03/18 00:23:47;;;;;;;0.10;0.10;;;;;;;18.27;67.70;100711.81;2119622;27;20104;-66
2023/03/18 00:24:51;;;;;;;0.10;0.10;;;;;;;18.28;67.53;100716.13;2120423;27;20059;-66
2023/03/18 00:25:58;;;;;;;0.10;0.10;;;;;;;18.27;67.41;100714.53;2114489;27;20051;-67
2023/03/18 00:27:00;;;;;;;0.15;0.15;;;;;;;18.26;67.84;100710.25;2114417;27;20043;-66
2023/03/18 00:28:03;;;;;;;0.10;0.10;;;;;;;18.26;67.50;100704.78;2105478;28;20056;-66
2023/03/18 00:29:06;;;;;;;0.10;0.10;;;;;;;18.28;67.48;100708.72;2105573;28;20138;-66
2023/03/18 00:30:11;;;;;;;0.10;0.10;;;;;;;18.29;67.55;100710.25;2115056;27;20078;-66
2023/03/18 00:31:14;;;;;;;0.20;0.20;;;;;;;18.27;67.40;100711.81;2116969;27;20071;-66
2023/03/18 00:32:17;;;;;;;0.10;0.10;;;;;;;18.27;67.75;100711.81;2114602;28;20063;-65
2023/03/18 00:33:19;;;;;;;0.10;0.10;;;;;;;18.27;67.47;100717.28;2115735;27;20052;-66
2023/03/18 00:34:22;;;;;;;0.10;0.10;;;;;;;18.28;67.41;100721.59;2114607;27;20055;-65
2023/03/18 00:35:26;;;;;;;0.10;0.10;;;;;;;18.27;67.76;100717.28;2114516;27;20423;-66
2023/03/18 00:36:29;;;;;;;0.13;0.13;;;;;;;18.27;67.60;100720.78;2114450;27;20575;-65
2023/03/18 00:37:33;;;;;;;0.17;0.17;;;;;;;18.27;67.75;100722.75;2114437;27;20051;-65
2023/03/18 00:38:36;;;;;;;0.10;0.10;;;;;;;18.27;67.70;100722.75;2114409;27;20151;-65
2023/03/18 00:39:43;;;;;;;0.20;0.20;;;;;;;18.27;67.75;100720.00;2116526;27;20078;-66
2023/03/18 00:41:00;;;;;;;0.20;0.20;;;;;;;18.26;67.55;100721.97;2114466;27;20039;-67
2023/03/18 00:42:09;;;;;;;0.10;0.10;;;;;;;18.24;67.79;100720.81;2120776;27;20487;-66
2023/03/18 00:43:13;;;;;;;0.13;0.13;;;;;;;18.24;67.80;100723.53;2122101;27;20059;-66
2023/03/18 00:44:14;;;;;;;0.10;0.10;;;;;;;18.24;67.80;100724.31;2122432;27;20138;-66
2023/03/18 00:45:17;;;;;;;0.10;0.10;;;;;;;18.25;67.76;100731.34;2121889;27;20054;-66
2023/03/18 00:46:25;;;;;;;0.10;0.10;;;;;;;18.22;67.75;100729.41;2112836;28;20511;-65
2023/03/18 00:47:27;;;;;;;0.10;0.10;;;;;;;18.24;67.64;100729.78;2111709;27;20499;-66
2023/03/18 00:48:30;;;;;;;0.10;0.10;;;;;;;18.25;67.72;100736.03;2105055;28;20071;-66
2023/03/18 00:49:32;;;;;;;0.10;0.10;;;;;;;18.25;67.78;100730.56;2097333;28;20056;-66
2023/03/18 00:50:35;;;;;;;0.10;0.10;;;;;;;18.25;67.59;100728.59;2105011;28;20524;-66
2023/03/18 00:51:40;;;;;;;0.10;0.10;;;;;;;18.25;67.68;100731.34;2114115;27;20082;-65
2023/03/18 00:52:44;;;;;;;0.15;0.15;;;;;;;18.25;67.99;100736.81;2105223;28;20487;-65
2023/03/18 00:53:52;;;;;;;0.10;0.10;;;;;;;18.23;67.49;100739.19;2106368;28;20535;-65
2023/03/18 00:54:55;;;;;;;0.10;0.10;;;;;;;18.24;68.00;100732.53;2105296;28;20410;-63
2023/03/18 00:55:59;;;;;;;0.17;0.17;;;;;;;18.25;67.75;100730.56;2107297;27;20058;-63
2023/03/18 00:57:02;;;;;;;0.10;0.10;;;;;;;18.24;67.58;100735.25;2108295;28;20088;-67
2023/03/18 00:58:04;;;;;;;0.10;0.10;;;;;;;18.25;67.75;100736.03;2097799;28;20524;-65
2023/03/18 00:59:08;;;;;;;0.10;0.10;;;;;;;18.24;67.73;100740.72;2105203;28;20216;-65
2023/03/18 01:00:11;;;;;;;0.10;0.10;;;;;;;18.26;67.75;100749.31;2114419;27;20534;-64
2023/03/18 01:01:15;;;;;;;0.10;0.10;;;;;;;18.25;67.77;100741.50;2110759;28;20081;-64
2023/03/18 01:02:17;;;;;;;0.10;0.10;;;;;;;18.24;67.80;100754.38;2105667;28;20052;-64
2023/03/18 01:03:24;;;;;;;0.10;0.10;;;;;;;18.22;67.97;100743.06;2114054;28;20428;-64
2023/03/18 01:04:26;;;;;;;0.10;0.10;;;;;;;18.24;67.67;100751.66;2113943;28;20496;-64
2023/03/18 01:05:30;;;;;;;0.10;0.10;;;;;;;18.25;67.71;100744.25;2113925;28;20405;-66
2023/03/18 01:06:35;;;;;;;0.20;0.20;;;;;;;18.25;67.81;100747.75;2116065;27;20047;-64
2023/03/18 01:07:38;;;;;;;0.10;0.10;;;;;;;18.25;67.83;100736.03;2114208;28;20063;-64
2023/03/18 01:08:41;;;;;;;0.20;0.20;;;;;;;18.25;68.02;100753.19;2105224;28;20900;-64
2023/03/18 01:09:43;;;;;;;0.10;0.10;;;;;;;18.23;67.95;100741.91;2096902;28;20061;-65
2023/03/18 01:10:45;;;;;;;0.10;0.10;;;;;;;18.25;67.82;100742.28;2103906;28;20089;-64
2023/03/18 01:11:50;;;;;;;0.20;0.20;;;;;;;18.26;67.75;100743.06;2112785;28;20169;-64
2023/03/18 01:12:52;;;;;;;0.10;0.10;;;;;;;18.25;67.92;100745.00;2121738;27;20080;-64
2023/03/18 01:13:58;;;;;;;0.20;0.20;;;;;;;18.23;67.73;100750.09;2114655;27;20496;-64
2023/03/18 01:15:00;;;;;;;0.17;0.17;;;;;;;18.22;67.97;100754.00;2114298;27;20420;-64
2023/03/18 01:16:03;;;;;;;0.10;0.10;;;;;;;18.23;68.00;100752.84;2105909;28;20497;-64
2023/03/18 01:17:07;;;;;;;0.20;0.20;;;;;;;18.23;67.96;100761.03;2104347;28;20160;-64
2023/03/18 01:18:11;;;;;;;0.10;0.10;;;;;;;18.25;68.00;100764.13;2113957;27;20096;-65
2023/03/18 01:19:13;;;;;;;0.20;0.20;;;;;;;18.23;67.68;100755.56;2113475;28;20070;-65
2023/03/18 01:20:18;;;;;;;0.10;0.10;;;;;;;18.25;67.95;100758.66;2113730;28;20104;-65
2023/03/18 01:21:24;;;;;;;0.10;0.10;;;;;;;18.22;67.87;100759.47;2110848;28;20056;-65
2023/03/18 01:22:30;;;;;;;0.10;0.10;;;;;;;18.22;67.88;100751.25;2105130;28;20597;-65
2023/03/18 01:23:32;;;;;;;0.10;0.10;;;;;;;18.23;67.76;100754.78;2112589;28;20096;-65
2023/03/18 01:24:36;;;;;;;0.10;0.10;;;;;;;18.24;67.97;100753.59;2115316;27;20445;-65
2023/03/18 01:25:38;;;;;;;0.13;0.13;;;;;;;18.24;67.97;100750.88;2099292;28;20056;-65
2023/03/18 01:26:41;;;;;;;0.10;0.10;;;;;;;18.23;67.88;100744.63;2088510;28;20118;-65
2023/03/18 01:27:45;;;;;;;0.10;0.10;;;;;;;18.24;67.70;100746.19;2105226;28;20131;-66
2023/03/18 01:28:47;;;;;;;0.10;0.10;;;;;;;18.24;67.94;100745.41;2113736;27;20056;-65
2023/03/18 01:29:50;;;;;;;0.10;0.10;;;;;;;18.23;67.90;100747.38;2114106;27;20063;-65
2023/03/18 01:30:57;;;;;;;0.10;0.10;;;;;;;18.19;68.05;100734.91;2110368;28;20598;-65
2023/03/18 01:31:59;;;;;;;0.10;0.10;;;;;;;18.23;68.28;100749.31;2100376;28;20464;-65
2023/03/18 01:33:04;;;;;;;0.10;0.10;;;;;;;18.24;67.97;100734.47;2096695;28;20048;-65
2023/03/18 01:34:06;;;;;;;0.10;0.10;;;;;;;18.22;68.00;100737.59;2105532;28;20052;-65
2023/03/18 01:35:20;;;;;;;0.10;0.10;;;;;;;18.16;68.09;100741.13;2105622;28;20052;-65
2023/03/18 01:36:24;;;;;;;0.13;0.13;;;;;;;18.21;67.97;100740.72;2096943;28;20540;-65
2023/03/18 01:37:38;;;;;;;0.10;0.10;;;;;;;18.20;68.11;100744.63;2098259;28;20084;-65
2023/03/18 01:38:44;;;;;;;0.10;0.10;;;;;;;18.20;67.95;100747.38;2097222;28;20135;-65
2023/03/18 01:39:49;;;;;;;0.10;0.10;;;;;;;18.20;67.65;100750.91;2099622;28;20490;-66
2023/03/18 01:40:56;;;;;;;0.10;0.10;;;;;;;18.19;68.01;100749.31;2097220;28;20047;-65
2023/03/18 01:41:59;;;;;;;0.10;0.10;;;;;;;18.20;68.08;100750.91;2096770;28;20142;-65
2023/03/18 01:43:13;;;;;;;0.10;0.10;;;;;;;18.19;67.89;100746.59;2094199;28;20060;-66
2023/03/18 01:44:18;;;;;;;;;;;;;;;17.95;68.35;100743.91;2092451;28;20060;-65
2023/03/18 01:45:24;;;;;;;0.13;0.13;;;;;;;18.09;68.36;100741.94;2105002;28;20482;-65
2023/03/18 01:46:34;;;;;;;0.10;0.10;;;;;;;18.13;68.19;100750.09;2108506;28;20043;-65
2023/03/18 01:47:36;;;;;;;0.10;0.10;;;;;;;18.13;67.99;100745.44;2109277;28;20064;-66
2023/03/18 01:48:39;;;;;;;0.17;0.17;;;;;;;18.13;68.26;100745.44;2112393;28;20450;-66
2023/03/18 01:49:46;;;;;;;0.10;0.10;;;;;;;18.17;67.87;100754.38;2113118;28;20051;-66
2023/03/18 01:50:54;;;;;;;0.10;0.10;;;;;;;18.16;68.02;100750.09;2112945;27;20039;-65
2023/03/18 01:51:58;;;;;;;0.13;0.13;;;;;;;18.12;68.07;100743.88;2116201;27;20047;-66
2023/03/18 01:53:06;;;;;;;0.10;0.10;;;;;;;18.16;68.14;100750.09;2115120;27;20054;-66
2023/03/18 01:54:09;;;;;;;0.10;0.10;;;;;;;18.16;68.09;100750.09;2113324;28;20055;-66
2023/03/18 01:55:15;;;;;;;0.10;0.10;;;;;;;18.16;67.89;100747.38;2113957;27;20059;-65
2023/03/18 01:56:18;;;;;;;0.10;0.10;;;;;;;18.17;68.15;100738.00;2104983;28;20101;-66
2023/03/18 01:57:22;;;;;;;0.10;0.10;;;;;;;18.17;67.98;100748.91;2096901;28;20410;-66
2023/03/18 01:58:29;;;;;;;0.20;0.20;;;;;;;18.15;68.18;100745.81;2104939;28;20060;-66
2023/03/18 01:59:37;;;;;;;0.15;0.15;;;;;;;18.17;67.85;100750.91;2112329;28;20058;-65
2023/03/18 02:00:45;;;;;;;0.10;0.10;;;;;;;18.16;67.82;100741.91;2104750;28;20055;-66
2023/03/18 02:01:52;;;;;;;0.10;0.10;;;;;;;18.15;67.74;100742.31;2114485;22;20134;-69
2023/03/18 02:02:57;;;;;;;0.10;0.10;;;;;;;18.14;68.01;100738.03;2092416;28;20117;-68
2023/03/18 02:04:02;;;;;;;0.10;0.10;;;;;;;18.16;68.15;100750.09;2087713;28;20472;-68
2023/03/18 02:05:06;;;;;;;0.10;0.10;;;;;;;18.16;68.11;100750.09;2083524;28;20061;-67
2023/03/18 02:06:11;;;;;;;0.10;0.10;;;;;;;18.17;67.97;100750.91;2088029;28;20048;-68
2023/03/18 02:07:15;;;;;;;0.13;0.13;;;;;;;18.17;67.87;100748.16;2088240;28;20080;-68
2023/03/18 02:08:18;;;;;;;0.10;0.10;;;;;;;18.16;68.22;100750.09;2088849;28;20414;-68
2023/03/18 02:09:20;;;;;;;0.10;0.10;;;;;;;18.16;68.09;100743.84;2098784;28;20056;-69
2023/03/18 02:10:25;;;;;;;0.10;0.10;;;;;;;18.17;68.10;100751.66;2090815;28;20113;-69
2023/03/18 02:11:32;;;;;;;0.10;0.10;;;;;;;18.14;67.95;100744.25;2079230;28;20045;-68
2023/03/18 02:12:38;;;;;;;0.10;0.10;;;;;;;18.16;68.13;100754.78;2079815;28;20054;-68
2023/03/18 02:13:44;;;;;;;0.10;0.10;;;;;;;18.16;68.09;100750.09;2095611;28;20493;-68
2023/03/18 02:14:48;;;;;;;0.10;0.10;;;;;;;18.15;68.12;100759.50;2088400;28;20084;-68
2023/03/18 02:15:54;;;;;;;0.10;0.10;;;;;;;18.16;67.78;100761.03;2080525;28;20057;-69
2023/03/18 02:17:01;;;;;;;0.10;0.10;;;;;;;18.15;67.94;100747.78;2086932;28;20116;-68
2023/03/18 02:18:08;;;;;;;0.10;0.10;;;;;;;18.15;68.10;100751.28;2077142;28;20053;-68
2023/03/18 02:19:26;;;;;;;0.10;0.10;;;;;;;18.14;67.76;100752.44;2079359;28;20049;-68
2023/03/18 02:20:41;;;;;;;0.10;0.10;;;;;;;18.09;68.08;100750.13;2082673;28;20550;-68
2023/03/18 02:21:57;;;;;;;0.10;0.10;;;;;;;18.09;68.07;100747.41;2080603;28;20404;-68
2023/03/18 02:23:06;;;;;;;0.10;0.10;;;;;;;18.12;67.87;100748.56;2088622;28;20056;-68
2023/03/18 02:24:19;;;;;;;0.10;0.10;;;;;;;18.10;68.13;100754.41;2073395;28;20589;-69
2023/03/18 02:25:32;;;;;;;0.10;0.10;;;;;;;18.09;67.88;100749.34;2074291;28;20188;-69
2023/03/18 02:26:45;;;;;;;0.10;0.10;;;;;;;18.09;68.00;100752.06;2073769;28;20491;-70
2023/03/18 02:27:54;;;;;;;0.10;0.10;;;;;;;18.09;68.07;100752.06;2073719;28;20046;-69
2023/03/18 02:29:02;;;;;;;0.10;0.10;;;;;;;18.11;68.16;100750.50;2080954;28;20137;-69
2023/03/18 02:30:13;;;;;;;0.10;0.10;;;;;;;18.11;68.04;100747.00;2074321;28;20045;-69
2023/03/18 02:31:19;;;;;;;0.10;0.10;;;;;;;18.10;68.20;100754.41;2066509;28;20050;-69
2023/03/18 02:32:25;;;;;;;0.10;0.10;;;;;;;18.11;68.01;100753.22;2072183;28;20061;-69
2023/03/18 02:33:34;;;;;;;0.10;0.10;;;;;;;18.12;67.98;100748.56;2071869;28;20065;-68
2023/03/18 02:34:37;;;;;;;0.20;0.20;;;;;;;18.12;68.09;100754.81;2081374;28;20400;-69
2023/03/18 02:35:44;;;;;;;0.10;0.10;;;;;;;18.12;68.04;100754.81;2087835;28;20049;-68
2023/03/18 02:36:46;;;;;;;0.10;0.10;;;;;;;18.11;68.28;100747.78;2088291;28;20056;-68
2023/03/18 02:37:49;;;;;;;0.10;0.10;;;;;;;18.12;68.02;100757.53;2076999;28;20094;-69
2023/03/18 02:38:51;;;;;;;0.10;0.10;;;;;;;18.13;68.06;100750.91;2063177;28;20057;-69
2023/03/18 02:40:13;;;;;;;0.10;0.10;;;;;;;18.02;68.00;100750.13;2072074;28;20053;-70
2023/03/18 02:41:17;;;;;;;0.10;0.10;;;;;;;18.10;68.06;100751.69;2072643;28;20094;-69
2023/03/18 02:42:28;;;;;;;0.10;0.10;;;;;;;18.08;68.10;100748.56;2071529;28;20081;-68
2023/03/18 02:43:32;;;;;;;0.10;0.10;;;;;;;18.11;67.97;100755.97;2069149;28;20081;-68
2023/03/18 02:44:43;;;;;;;0.10;0.10;;;;;;;18.11;68.07;100758.69;2057252;28;20528;-68
2023/03/18 02:46:13;;;;;;;0.10;0.10;;;;;;;18.05;68.15;100760.28;2084692;28;20059;-69
2023/03/18 02:47:20;;;;;;;0.10;0.10;;;;;;;18.08;67.97;100754.03;2079516;28;20132;-68
2023/03/18 02:48:27;;;;;;;0.10;0.10;;;;;;;18.08;68.04;100764.94;2072103;28;20050;-68
2023/03/18 02:49:31;;;;;;;0.10;0.10;;;;;;;18.10;68.32;100759.09;2080468;28;20092;-68
2023/03/18 02:50:34;;;;;;;0.10;0.10;;;;;;;18.11;68.27;100763.41;2071418;28;20155;-68
2023/03/18 02:51:39;;;;;;;0.10;0.10;;;;;;;18.12;67.91;100767.69;2078681;28;20057;-68
2023/03/18 02:52:41;;;;;;;0.10;0.10;;;;;;;18.11;67.84;100760.66;2086682;28;20053;-68
2023/03/18 02:53:44;;;;;;;0.10;0.10;;;;;;;18.12;68.19;100765.75;2065492;28;20085;-68
2023/03/18 02:54:47;;;;;;;0.10;0.10;;;;;;;18.11;68.13;100775.09;2076767;28;20097;-68
2023/03/18 02:55:50;;;;;;;0.10;0.10;;;;;;;18.12;67.94;100771.22;2084905;28;20045;-73
2023/03/18 02:56:53;;;;;;;0.10;0.10;;;;;;;18.12;68.18;100770.41;2076805;28;20553;-73
2023/03/18 02:57:56;;;;;;;0.17;0.17;;;;;;;18.11;68.15;100777.81;2069542;28;20089;-73
2023/03/18 02:59:00;;;;;;;0.10;0.10;;;;;;;18.13;67.92;100774.69;2071458;28;20491;-73
2023/03/18 03:00:04;;;;;;;0.10;0.10;;;;;;;18.12;68.11;100773.94;2077149;28;20056;-73
2023/03/18 03:01:08;;;;;;;0.10;0.10;;;;;;;18.12;68.18;100776.66;2085699;28;20057;-73
2023/03/18 03:02:11;;;;;;;0.10;0.10;;;;;;;18.12;67.87;100773.94;2079181;28;20144;-73
2023/03/18 03:03:14;;;;;;;0.10;0.10;;;;;;;18.13;68.21;100772.75;2071159;28;20096;-73
2023/03/18 03:04:19;;;;;;;0.10;0.10;;;;;;;18.13;67.94;100774.69;2064699;28;20054;-73
2023/03/18 03:05:20;;;;;;;0.10;0.10;;;;;;;18.12;67.90;100771.22;2070426;28;20053;-73
2023/03/18 03:06:24;;;;;;;0.17;0.17;;;;;;;18.13;68.20;100778.22;2068009;28;20065;-73
2023/03/18 03:07:26;;;;;;;0.10;0.10;;;;;;;18.12;67.81;100771.22;2066787;28;20101;-73
2023/03/18 03:08:32;;;;;;;0.10;0.10;;;;;;;18.12;68.11;100775.88;2063091;28;20089;-73
2023/03/18 03:09:34;;;;;;;0.10;0.10;;;;;;;18.12;67.79;100782.13;2060307;28;20054;-73
2023/03/18 03:10:37;;;;;;;0.10;0.10;;;;;;;18.14;67.91;100782.50;2063476;28;20066;-73
2023/03/18 03:11:39;;;;;;;0.10;0.10;;;;;;;18.13;67.76;100789.16;2055311;28;20098;-73
2023/03/18 03:12:48;;;;;;;0.10;0.10;;;;;;;18.12;67.84;100786.81;2067158;28;20558;-73
2023/03/18 03:13:52;;;;;;;0.10;0.10;;;;;;;18.13;67.80;100789.16;2071762;28;20053;-73
2023/03/18 03:14:57;;;;;;;0.03;0.03;;;;;;;18.14;67.90;100796.16;2063399;28;20551;-73
2023/03/18 03:16:01;;;;;;;0.15;0.15;;;;;;;18.12;67.96;100792.28;2064301;28;20492;-73
2023/03/18 03:17:04;;;;;;;0.10;0.10;;;;;;;18.13;67.98;100791.09;2074330;28;20085;-73
2023/03/18 03:18:06;;;;;;;0.10;0.10;;;;;;;18.13;67.99;100791.09;2080311;28;20073;-74
2023/03/18 03:19:11;;;;;;;0.10;0.10;;;;;;;18.12;68.04;100787.59;2084212;28;20064;-74
2023/03/18 03:20:14;;;;;;;0.10;0.10;;;;;;;18.12;67.89;100787.59;2075741;28;20053;-74
2023/03/18 03:21:17;;;;;;;0.10;0.10;;;;;;;18.12;67.95;100784.88;2063830;28;20655;-74
2023/03/18 03:22:18;;;;;;;0.10;0.10;;;;;;;18.11;67.93;100788.75;2063248;28;20216;-74
2023/03/18 03:23:22;;;;;;;0.10;0.10;;;;;;;18.13;67.73;100789.16;2065852;28;20491;-74
2023/03/18 03:24:24;;;;;;;0.10;0.10;;;;;;;18.13;67.79;100794.63;2047735;28;20146;-73
2023/03/18 03:25:27;;;;;;;0.13;0.13;;;;;;;18.12;67.61;100793.06;2072077;28;20542;-74
2023/03/18 03:26:30;;;;;;;0.17;0.17;;;;;;;18.12;67.84;100793.06;2065962;28;20054;-73
2023/03/18 03:27:33;;;;;;;0.20;0.20;;;;;;;18.13;67.95;100799.28;2070870;28;20065;-74
2023/03/18 03:28:35;;;;;;;0.10;0.10;;;;;;;18.13;67.73;100800.09;2062909;28;20392;-74
2023/03/18 03:29:38;;;;;;;0.10;0.10;;;;;;;18.14;67.90;100804.38;2070128;28;20133;-73
2023/03/18 03:30:42;;;;;;;0.17;0.17;;;;;;;18.13;67.76;100800.09;2064452;28;20614;-69
2023/03/18 03:31:45;;;;;;;0.17;0.17;;;;;;;18.12;67.71;100798.53;2064639;28;20058;-73
2023/03/18 03:32:47;;;;;;;0.10;0.10;;;;;;;18.12;67.85;100795.81;2060452;28;20058;-74
2023/03/18 03:33:51;;;;;;;0.15;0.15;;;;;;;18.11;67.99;100794.22;2063122;28;20533;-74
2023/03/18 03:34:53;;;;;;;0.10;0.10;;;;;;;18.12;67.74;100792.28;2060645;28;20050;-74
2023/03/18 03:35:57;;;;;;;0.10;0.10;;;;;;;18.13;67.77;100804.75;2059691;28;20109;-74
2023/03/18 03:36:59;;;;;;;0.10;0.10;;;;;;;18.13;67.71;100797.34;2069754;28;20054;-74
2023/03/18 03:38:02;;;;;;;0.10;0.10;;;;;;;18.13;67.97;100805.53;2073213;28;20072;-74
2023/03/18 03:39:05;;;;;;;0.10;0.10;;;;;;;18.13;67.85;100800.09;2080279;28;20518;-74
2023/03/18 03:40:11;;;;;;;0.10;0.10;;;;;;;18.13;67.79;100802.81;2072976;28;20096;-69
2023/03/18 03:41:14;;;;;;;0.10;0.10;;;;;;;18.12;67.80;100801.25;2071239;28;20053;-69
2023/03/18 03:42:17;;;;;;;0.10;0.10;;;;;;;18.12;67.91;100798.53;2068811;28;20141;-69
2023/03/18 03:43:20;;;;;;;0.10;0.10;;;;;;;18.13;67.77;100810.22;2064559;28;20058;-69
2023/03/18 03:44:23;;;;;;;0.10;0.10;;;;;;;18.14;67.61;100809.06;2063312;28;20133;-73
2023/03/18 03:45:25;;;;;;;0.10;0.10;;;;;;;18.13;67.59;100804.75;2055708;28;20051;-73
2023/03/18 03:46:31;;;;;;;0.10;0.10;;;;;;;18.13;67.72;100811.00;2063323;28;20062;-73
2023/03/18 03:47:34;;;;;;;0.10;0.10;;;;;;;18.12;67.63;100803.22;2063966;28;20503;-73
2023/03/18 03:48:39;;;;;;;0.10;0.10;;;;;;;18.12;67.75;100806.72;2068434;28;20419;-73
2023/03/18 03:49:45;;;;;;;0.13;0.13;;;;;;;18.11;67.73;100801.66;2068795;28;20510;-74
2023/03/18 03:50:50;;;;;;;0.13;0.13;;;;;;;18.12;67.51;100809.47;2061455;28;20602;-73
2023/03/18 03:51:52;;;;;;;0.10;0.10;;;;;;;18.11;67.61;100810.63;2069407;28;20454;-74
2023/03/18 03:52:57;;;;;;;0.10;0.10;;;;;;;18.11;67.54;100810.63;2078121;28;20533;-74
2023/03/18 03:54:02;;;;;;;0.20;0.20;;;;;;;18.11;67.70;100821.53;2070175;28;20058;-74
2023/03/18 03:55:09;;;;;;;0.10;0.10;;;;;;;18.12;67.63;100823.13;2062818;28;20468;-73
2023/03/18 03:56:11;;;;;;;0.10;0.10;;;;;;;18.10;67.78;100821.94;2067006;28;20436;-74
2023/03/18 03:57:15;;;;;;;0.10;0.10;;;;;;;18.11;67.65;100824.28;2070687;28;20542;-73
2023/03/18 03:58:17;;;;;;;0.10;0.10;;;;;;;18.11;67.71;100828.97;2061229;28;20578;-74
2023/03/18 03:59:21;;;;;;;0.10;0.10;;;;;;;18.11;67.70;100832.47;2060472;28;20061;-74
2023/03/18 04:00:42;;;;;;;0.10;0.10;;;;;;;18.08;67.63;100829.75;2066032;28;20058;-69
2023/03/18 04:01:47;;;;;;;0.17;0.17;;;;;;;18.09;67.83;100832.09;2058987;28;20046;-69
2023/03/18 04:02:51;;;;;;;0.10;0.10;;;;;;;18.10;67.53;100839.13;2067046;28;20054;-69
2023/03/18 04:03:55;;;;;;;0.10;0.10;;;;;;;18.09;67.82;100837.56;2068664;28;20113;-69
2023/03/18 04:04:58;;;;;;;0.10;0.10;;;;;;;18.09;67.55;100834.84;2058664;28;20055;-70
2023/03/18 04:06:06;;;;;;;0.10;0.10;;;;;;;18.09;67.34;100837.56;2064187;28;20189;-69
2023/03/18 04:07:13;;;;;;;0.10;0.10;;;;;;;18.06;67.93;100838.31;2069881;28;20050;-70
2023/03/18 04:08:16;;;;;;;0.10;0.10;;;;;;;18.08;67.51;100838.72;2054817;28;20192;-69
2023/03/18 04:09:18;;;;;;;0.10;0.10;;;;;;;18.10;67.68;100844.59;2063154;28;20112;-70
2023/03/18 04:10:22;;;;;;;0.10;0.10;;;;;;;18.09;67.63;100843.03;2087532;28;20514;-69
2023/03/18 04:11:24;;;;;;;0.10;0.10;;;;;;;18.09;67.79;100845.78;2087800;28;20854;-69
2023/03/18 04:12:28;;;;;;;0.15;0.15;;;;;;;18.10;67.43;100852.00;2084600;28;20053;-70
2023/03/18 04:13:34;;;;;;;0.15;0.15;;;;;;;18.09;67.50;100847.72;2069691;28;20477;-69
2023/03/18 04:14:38;;;;;;;0.10;0.10;;;;;;;18.09;67.62;100858.63;2070604;28;20054;-69
2023/03/18 04:15:41;;;;;;;0.10;0.10;;;;;;;18.09;67.63;100847.72;2078388;28;20096;-69
2023/03/18 04:16:48;;;;;;;0.10;0.10;;;;;;;18.10;67.54;100855.50;2077623;28;20404;-69
2023/03/18 04:17:51;;;;;;;0.20;0.20;;;;;;;18.09;67.68;100862.16;2085907;28;20074;-68
2023/03/18 04:18:54;;;;;;;0.10;0.10;;;;;;;18.08;67.79;100857.84;2085525;28;20459;-69
2023/03/18 04:19:58;;;;;;;0.10;0.10;;;;;;;18.09;67.34;100864.91;2070712;28;20054;-69
2023/03/18 04:21:04;;;;;;;0.10;0.10;;;;;;;18.08;67.61;100863.31;2071889;28;20061;-69
2023/03/18 04:22:15;;;;;;;0.10;0.10;;;;;;;18.06;67.57;100864.88;2072134;28;20057;-68
2023/03/18 04:23:18;;;;;;;0.10;0.10;;;;;;;18.07;67.51;100861.75;2075924;28;20133;-69
2023/03/18 04:24:21;;;;;;;0.10;0.10;;;;;;;18.04;67.67;100857.09;2078513;28;20487;-68
2023/03/18 04:25:24;;;;;;;0.10;0.10;;;;;;;18.03;67.50;100855.50;2067990;28;20073;-68
2023/03/18 04:26:28;;;;;;;0.10;0.10;;;;;;;18.08;67.54;100857.84;2064611;28;20100;-68
2023/03/18 04:27:33;;;;;;;0.10;0.10;;;;;;;18.07;67.53;100858.25;2066586;28;20062;-67
2023/03/18 04:28:41;;;;;;;0.10;0.10;;;;;;;18.07;67.61;100861.75;2075533;28;20536;-69
2023/03/18 04:29:45;;;;;;;0.20;0.20;;;;;;;18.06;67.43;100860.19;2071136;28;20054;-68
2023/03/18 04:30:49;;;;;;;0.17;0.17;;;;;;;18.07;67.41;100861.75;2071160;28;20775;-68
2023/03/18 04:31:53;;;;;;;0.10;0.10;;;;;;;18.08;67.43;100866.03;2079858;28;20120;-68
2023/03/18 04:32:58;;;;;;;0.10;0.10;;;;;;;18.07;67.54;100869.97;2063584;28;20511;-68
2023/03/18 04:34:00;;;;;;;0.15;0.15;;;;;;;18.06;67.44;100870.34;2072068;28;20080;-68
2023/03/18 04:35:04;;;;;;;0.13;0.13;;;;;;;18.08;67.49;100871.50;2079989;28;20493;-68
2023/03/18 04:36:08;;;;;;;0.13;0.13;;;;;;;18.05;67.63;100872.28;2079950;28;20061;-68
2023/03/18 04:37:13;;;;;;;0.10;0.10;;;;;;;18.07;67.19;100878.16;2071988;28;20109;-68
2023/03/18 04:38:18;;;;;;;0.10;0.10;;;;;;;18.06;67.44;100879.31;2077939;28;20076;-68
2023/03/18 04:39:23;;;;;;;0.10;0.10;;;;;;;18.05;67.57;100880.50;2061190;28;20101;-68
2023/03/18 04:40:25;;;;;;;0.10;0.10;;;;;;;18.07;67.45;100883.63;2056916;28;20217;-73
2023/03/18 04:41:28;;;;;;;0.10;0.10;;;;;;;18.08;67.54;100881.66;2072865;28;20592;-73
2023/03/18 04:42:32;;;;;;;0.10;0.10;;;;;;;18.05;67.34;100874.25;2071842;28;20585;-73
2023/03/18 04:43:35;;;;;;;0.20;0.20;;;;;;;18.07;67.41;100883.63;2063742;28;20585;-73
2023/03/18 04:44:38;;;;;;;0.15;0.15;;;;;;;18.07;67.35;100878.16;2064732;28;20050;-73
2023/03/18 04:45:42;;;;;;;0.13;0.13;;;;;;;18.07;67.47;100874.63;2080195;28;20720;-73
2023/03/18 04:46:45;;;;;;;0.10;0.10;;;;;;;18.06;67.45;100873.84;2080467;28;20041;-73
2023/03/18 04:47:49;;;;;;;0.10;0.10;;;;;;;18.09;67.15;100875.03;2077783;28;20085;-73
2023/03/18 04:48:51;;;;;;;0.10;0.10;;;;;;;18.07;67.30;100880.88;2072272;28;20446;-73
2023/03/18 04:49:54;;;;;;;0.17;0.17;;;;;;;18.08;67.13;100878.91;2057506;28;20146;-73
2023/03/18 04:50:56;;;;;;;0.10;0.10;;;;;;;18.07;67.35;100880.88;2064873;28;20065;-73
2023/03/18 04:52:03;;;;;;;0.10;0.10;;;;;;;18.05;67.30;100885.16;2091158;28;20052;-73
2023/03/18 04:53:06;;;;;;;0.20;0.20;;;;;;;18.07;67.32;100880.09;2079300;28;20061;-73
2023/03/18 04:54:11;;;;;;;0.10;0.10;;;;;;;18.07;67.18;100880.09;2071877;28;20447;-74
2023/03/18 04:55:15;;;;;;;0.13;0.13;;;;;;;18.05;67.43;100883.22;2056476;28;20137;-73
2023/03/18 04:56:18;;;;;;;0.10;0.10;;;;;;;18.05;67.18;100885.97;2061774;28;20543;-74
2023/03/18 04:57:24;;;;;;;0.10;0.10;;;;;;;18.05;66.99;100885.97;2060541;28;20503;-73
2023/03/18 04:58:30;;;;;;;0.10;0.10;;;;;;;18.05;67.36;100891.41;2058034;28;20059;-73
2023/03/18 04:59:41;;;;;;;0.10;0.10;;;;;;;18.03;67.30;100885.56;2071124;28;20189;-73
2023/03/18 05:00:44;;;;;;;0.10;0.10;;;;;;;18.04;67.13;100887.13;2064149;28;20518;-74